Monday, December 18, 2017, 3:33 PM EST
Back to Local

KITH, Ithaca, Ithaca Tompkins Regional Airport

Location: Ithaca, NY, United States Lat: 42.491
Local Time: 3:33 PM EST (20:33 GMT) Lon: -76.458
Time Zone: US/Eastern Elev: 1099 ft

Show me the last for .
Show Decoded

2017-12-18 14:55 METAR KITH 181955Z 21005KT 10SM BKN025 OVC055 04/01 A2988 =
2017-12-18 13:55 METAR KITH 181855Z 18005KT 10SM OVC027 03/00 A2989 =
2017-12-18 12:55 METAR KITH 181755Z 17004KT 10SM BKN028 OVC043 03/00 A2992 =
2017-12-18 11:55 METAR KITH 181655Z 17006KT 10SM SCT035 OVC055 03/00 A2994 =
2017-12-18 10:55 METAR KITH 181555Z 18006KT 9SM BKN021 OVC040 03/00 A2998 =
2017-12-18 09:55 METAR KITH 181455Z 18005KT 9SM BKN021 OVC050 02/M01 A2999 =
2017-12-18 08:55 METAR KITH 181355Z 18005KT 9SM OVC021 01/M01 A3001 =
2017-12-18 07:56 METAR KITH 181256Z 19005KT 9SM OVC019 01/M01 A3000 =
2017-12-18 06:56 METAR KITH 181156Z 19005KT 7SM OVC021 01/M01 A3002 =
2017-12-18 06:30 METAR KITH 181130Z 16005KT 5SM -SN BR OVC018 01/M02 A3001 =
2017-12-17 21:55 METAR KITH 180255Z 00000KT 10SM OVC048 M04/M07 A3012 =
2017-12-17 20:55 METAR KITH 180155Z 00000KT 6SM -SN OVC042 M04/M07 A3014 =
2017-12-17 19:55 METAR KITH 180055Z 13003KT 5SM -SN OVC034 M04/M08 A3016 =
2017-12-17 18:55 METAR KITH 172355Z VRB04KT 10SM BKN110 M05/M08 A3017 =
2017-12-17 17:55 METAR KITH 172255Z 00000KT 10SM CLR M05/M09 A3018 =
2017-12-17 16:55 METAR KITH 172155Z 00000KT 10SM CLR M05/M09 A3018 =
2017-12-17 15:55 METAR KITH 172055Z VRB03KT 10SM SCT045 M04/M08 A3018 =

Support USWX by starting your Amazon purchase here.